sensor_id;sensor_type;location;lat;lon;timestamp;temperature;humidity
29031;DHT22;16122;50.236;11.734;2024-02-04T00:01:41;16.50;65.50
29031;DHT22;16122;50.236;11.734;2024-02-04T00:04:07;16.60;65.60
29031;DHT22;16122;50.236;11.734;2024-02-04T00:06:33;16.50;65.50
29031;DHT22;16122;50.236;11.734;2024-02-04T00:08:59;16.60;65.50
29031;DHT22;16122;50.236;11.734;2024-02-04T00:11:25;16.50;65.50
29031;DHT22;16122;50.236;11.734;2024-02-04T00:13:51;16.60;65.50
29031;DHT22;16122;50.236;11.734;2024-02-04T00:16:17;16.70;65.50
29031;DHT22;16122;50.236;11.734;2024-02-04T00:18:44;16.50;65.20
29031;DHT22;16122;50.236;11.734;2024-02-04T00:21:10;16.50;65.20
29031;DHT22;16122;50.236;11.734;2024-02-04T00:23:35;16.50;65.20
29031;DHT22;16122;50.236;11.734;2024-02-04T00:26:01;16.60;65.30
29031;DHT22;16122;50.236;11.734;2024-02-04T00:28:27;16.60;65.30
29031;DHT22;16122;50.236;11.734;2024-02-04T00:30:54;16.60;65.30
29031;DHT22;16122;50.236;11.734;2024-02-04T00:33:22;16.50;65.30
29031;DHT22;16122;50.236;11.734;2024-02-04T00:35:48;16.60;65.30
29031;DHT22;16122;50.236;11.734;2024-02-04T00:38:13;16.70;65.40
29031;DHT22;16122;50.236;11.734;2024-02-04T00:40:39;16.70;65.80
29031;DHT22;16122;50.236;11.734;2024-02-04T00:43:05;16.60;65.40
29031;DHT22;16122;50.236;11.734;2024-02-04T00:45:31;16.70;65.50
29031;DHT22;16122;50.236;11.734;2024-02-04T00:47:58;16.70;65.50
29031;DHT22;16122;50.236;11.734;2024-02-04T00:50:23;16.60;65.40
29031;DHT22;16122;50.236;11.734;2024-02-04T00:52:50;16.60;65.40
29031;DHT22;16122;50.236;11.734;2024-02-04T00:55:16;16.70;65.50
29031;DHT22;16122;50.236;11.734;2024-02-04T00:57:43;16.70;65.40
29031;DHT22;16122;50.236;11.734;2024-02-04T01:00:09;16.60;65.40
29031;DHT22;16122;50.236;11.734;2024-02-04T01:02:35;16.60;65.40
29031;DHT22;16122;50.236;11.734;2024-02-04T01:05:01;16.70;65.50
29031;DHT22;16122;50.236;11.734;2024-02-04T01:07:27;16.70;65.50
29031;DHT22;16122;50.236;11.734;2024-02-04T01:09:52;16.60;65.40
29031;DHT22;16122;50.236;11.734;2024-02-04T01:12:18;16.60;65.40
29031;DHT22;16122;50.236;11.734;2024-02-04T01:14:44;16.70;66.20
29031;DHT22;16122;50.236;11.734;2024-02-04T01:17:10;16.70;65.40
29031;DHT22;16122;50.236;11.734;2024-02-04T01:19:35;16.70;65.40
29031;DHT22;16122;50.236;11.734;2024-02-04T01:22:01;16.70;65.40
29031;DHT22;16122;50.236;11.734;2024-02-04T01:24:27;16.60;65.30
29031;DHT22;16122;50.236;11.734;2024-02-04T01:26:54;16.70;65.30
29031;DHT22;16122;50.236;11.734;2024-02-04T01:29:20;16.60;65.20
29031;DHT22;16122;50.236;11.734;2024-02-04T01:31:46;16.60;65.20
29031;DHT22;16122;50.236;11.734;2024-02-04T01:34:11;16.80;65.30
29031;DHT22;16122;50.236;11.734;2024-02-04T01:36:38;16.60;65.20
29031;DHT22;16122;50.236;11.734;2024-02-04T01:39:04;16.80;65.40
29031;DHT22;16122;50.236;11.734;2024-02-04T01:41:30;16.70;65.30
29031;DHT22;16122;50.236;11.734;2024-02-04T01:43:56;16.80;65.30
29031;DHT22;16122;50.236;11.734;2024-02-04T01:46:23;16.70;65.20
29031;DHT22;16122;50.236;11.734;2024-02-04T01:48:49;16.70;65.30
29031;DHT22;16122;50.236;11.734;2024-02-04T01:51:16;16.70;65.00
29031;DHT22;16122;50.236;11.734;2024-02-04T01:53:44;16.70;65.10
29031;DHT22;16122;50.236;11.734;2024-02-04T01:56:12;16.80;65.20
29031;DHT22;16122;50.236;11.734;2024-02-04T01:58:39;16.70;65.10
29031;DHT22;16122;50.236;11.734;2024-02-04T02:01:05;16.70;65.10
29031;DHT22;16122;50.236;11.734;2024-02-04T02:03:31;16.70;65.20
29031;DHT22;16122;50.236;11.734;2024-02-04T02:05:59;16.70;65.10
29031;DHT22;16122;50.236;11.734;2024-02-04T02:08:25;16.70;65.00
29031;DHT22;16122;50.236;11.734;2024-02-04T02:10:57;16.70;65.10
29031;DHT22;16122;50.236;11.734;2024-02-04T02:13:29;16.80;65.10
29031;DHT22;16122;50.236;11.734;2024-02-04T02:16:07;16.70;65.00
29031;DHT22;16122;50.236;11.734;2024-02-04T02:18:40;16.70;65.00
29031;DHT22;16122;50.236;11.734;2024-02-04T02:24:25;16.80;65.00
29031;DHT22;16122;50.236;11.734;2024-02-04T02:26:52;16.70;64.90
29031;DHT22;16122;50.236;11.734;2024-02-04T02:29:19;16.80;65.00
29031;DHT22;16122;50.236;11.734;2024-02-04T02:31:46;16.70;64.80
29031;DHT22;16122;50.236;11.734;2024-02-04T02:34:12;16.80;64.90
29031;DHT22;16122;50.236;11.734;2024-02-04T02:36:44;16.80;65.70
29031;DHT22;16122;50.236;11.734;2024-02-04T02:39:18;16.70;64.80
29031;DHT22;16122;50.236;11.734;2024-02-04T02:41:49;16.70;64.90
29031;DHT22;16122;50.236;11.734;2024-02-04T02:44:17;16.70;64.80
29031;DHT22;16122;50.236;11.734;2024-02-04T02:46:45;16.60;64.70
29031;DHT22;16122;50.236;11.734;2024-02-04T02:49:11;16.70;64.70
29031;DHT22;16122;50.236;11.734;2024-02-04T02:51:37;16.70;64.70
29031;DHT22;16122;50.236;11.734;2024-02-04T02:54:02;16.70;64.70
29031;DHT22;16122;50.236;11.734;2024-02-04T02:56:28;16.80;64.80
29031;DHT22;16122;50.236;11.734;2024-02-04T02:58:54;16.80;64.80
29031;DHT22;16122;50.236;11.734;2024-02-04T03:01:20;16.70;64.70
29031;DHT22;16122;50.236;11.734;2024-02-04T03:03:45;16.80;64.80
29031;DHT22;16122;50.236;11.734;2024-02-04T03:06:11;16.70;64.70
29031;DHT22;16122;50.236;11.734;2024-02-04T03:08:37;16.80;64.80
29031;DHT22;16122;50.236;11.734;2024-02-04T03:11:03;16.70;64.70
29031;DHT22;16122;50.236;11.734;2024-02-04T03:13:29;16.70;64.70
29031;DHT22;16122;50.236;11.734;2024-02-04T03:15:56;16.70;64.60
29031;DHT22;16122;50.236;11.734;2024-02-04T03:18:22;16.70;64.60
29031;DHT22;16122;50.236;11.734;2024-02-04T03:20:47;16.70;64.50
29031;DHT22;16122;50.236;11.734;2024-02-04T03:23:13;16.70;64.50
29031;DHT22;16122;50.236;11.734;2024-02-04T03:25:39;16.80;64.60
29031;DHT22;16122;50.236;11.734;2024-02-04T03:28:05;16.80;64.60
29031;DHT22;16122;50.236;11.734;2024-02-04T03:30:31;16.80;64.50
29031;DHT22;16122;50.236;11.734;2024-02-04T03:32:57;16.80;64.50
29031;DHT22;16122;50.236;11.734;2024-02-04T03:35:23;16.70;64.30
29031;DHT22;16122;50.236;11.734;2024-02-04T03:37:49;16.70;64.30
29031;DHT22;16122;50.236;11.734;2024-02-04T03:40:15;16.70;64.30
29031;DHT22;16122;50.236;11.734;2024-02-04T03:42:41;16.70;64.30
29031;DHT22;16122;50.236;11.734;2024-02-04T03:45:07;16.70;64.30
29031;DHT22;16122;50.236;11.734;2024-02-04T03:47:32;16.80;64.40
29031;DHT22;16122;50.236;11.734;2024-02-04T03:49:58;16.70;64.30
29031;DHT22;16122;50.236;11.734;2024-02-04T03:52:24;16.70;64.30
29031;DHT22;16122;50.236;11.734;2024-02-04T03:54:50;16.70;64.30
29031;DHT22;16122;50.236;11.734;2024-02-04T03:57:16;16.80;64.40
29031;DHT22;16122;50.236;11.734;2024-02-04T03:59:45;16.70;64.30
29031;DHT22;16122;50.236;11.734;2024-02-04T04:02:14;16.70;64.40
29031;DHT22;16122;50.236;11.734;2024-02-04T04:04:40;16.70;64.30
29031;DHT22;16122;50.236;11.734;2024-02-04T04:07:13;16.70;64.30
29031;DHT22;16122;50.236;11.734;2024-02-04T04:09:38;16.80;64.40
29031;DHT22;16122;50.236;11.734;2024-02-04T04:12:04;16.80;64.40
29031;DHT22;16122;50.236;11.734;2024-02-04T04:14:31;16.70;64.40
29031;DHT22;16122;50.236;11.734;2024-02-04T04:16:56;16.60;64.20
29031;DHT22;16122;50.236;11.734;2024-02-04T04:19:22;16.70;64.30
29031;DHT22;16122;50.236;11.734;2024-02-04T04:21:48;16.80;64.40
29031;DHT22;16122;50.236;11.734;2024-02-04T04:24:14;16.70;64.30
29031;DHT22;16122;50.236;11.734;2024-02-04T04:26:43;16.70;64.20
29031;DHT22;16122;50.236;11.734;2024-02-04T04:29:09;16.70;64.20
29031;DHT22;16122;50.236;11.734;2024-02-04T04:31:35;16.70;64.10
29031;DHT22;16122;50.236;11.734;2024-02-04T04:34:01;16.80;64.20
29031;DHT22;16122;50.236;11.734;2024-02-04T04:36:27;16.70;64.10
29031;DHT22;16122;50.236;11.734;2024-02-04T04:38:53;16.80;64.20
29031;DHT22;16122;50.236;11.734;2024-02-04T04:41:18;16.80;64.20
29031;DHT22;16122;50.236;11.734;2024-02-04T04:43:44;16.70;64.10
29031;DHT22;16122;50.236;11.734;2024-02-04T04:46:10;16.70;64.20
29031;DHT22;16122;50.236;11.734;2024-02-04T04:48:36;16.70;64.10
29031;DHT22;16122;50.236;11.734;2024-02-04T04:51:01;16.70;64.10
29031;DHT22;16122;50.236;11.734;2024-02-04T04:53:27;16.80;64.20
29031;DHT22;16122;50.236;11.734;2024-02-04T04:55:53;16.70;64.10
29031;DHT22;16122;50.236;11.734;2024-02-04T04:58:19;16.80;64.20
29031;DHT22;16122;50.236;11.734;2024-02-04T05:00:44;16.70;64.10
29031;DHT22;16122;50.236;11.734;2024-02-04T05:03:10;16.70;64.00
29031;DHT22;16122;50.236;11.734;2024-02-04T05:05:36;16.80;64.20
29031;DHT22;16122;50.236;11.734;2024-02-04T05:08:02;16.70;64.00
29031;DHT22;16122;50.236;11.734;2024-02-04T05:10:28;16.80;64.10
29031;DHT22;16122;50.236;11.734;2024-02-04T05:12:54;16.70;64.00
29031;DHT22;16122;50.236;11.734;2024-02-04T05:15:19;16.70;64.00
29031;DHT22;16122;50.236;11.734;2024-02-04T05:17:46;16.70;64.80
29031;DHT22;16122;50.236;11.734;2024-02-04T05:20:12;16.70;64.00
29031;DHT22;16122;50.236;11.734;2024-02-04T05:22:38;16.70;64.10
29031;DHT22;16122;50.236;11.734;2024-02-04T05:25:04;16.80;64.10
29031;DHT22;16122;50.236;11.734;2024-02-04T05:27:31;16.80;64.10
29031;DHT22;16122;50.236;11.734;2024-02-04T05:29:57;16.70;64.00
29031;DHT22;16122;50.236;11.734;2024-02-04T05:32:23;16.70;64.80
29031;DHT22;16122;50.236;11.734;2024-02-04T05:34:49;16.80;64.80
29031;DHT22;16122;50.236;11.734;2024-02-04T05:37:14;16.70;64.00
29031;DHT22;16122;50.236;11.734;2024-02-04T05:39:40;16.70;64.00
29031;DHT22;16122;50.236;11.734;2024-02-04T05:42:06;16.60;63.90
29031;DHT22;16122;50.236;11.734;2024-02-04T05:44:32;16.80;64.10
29031;DHT22;16122;50.236;11.734;2024-02-04T05:46:57;16.70;63.80
29031;DHT22;16122;50.236;11.734;2024-02-04T05:49:24;16.70;63.80
29031;DHT22;16122;50.236;11.734;2024-02-04T05:51:50;16.80;63.90
29031;DHT22;16122;50.236;11.734;2024-02-04T05:54:15;16.80;63.90
29031;DHT22;16122;50.236;11.734;2024-02-04T05:56:41;16.60;63.60
29031;DHT22;16122;50.236;11.734;2024-02-04T05:59:07;16.60;63.80
29031;DHT22;16122;50.236;11.734;2024-02-04T06:01:33;16.60;63.80
29031;DHT22;16122;50.236;11.734;2024-02-04T06:03:58;16.60;63.60
29031;DHT22;16122;50.236;11.734;2024-02-04T06:06:24;16.60;63.60
29031;DHT22;16122;50.236;11.734;2024-02-04T06:08:50;16.60;63.60
29031;DHT22;16122;50.236;11.734;2024-02-04T06:11:16;16.60;63.60
29031;DHT22;16122;50.236;11.734;2024-02-04T06:13:44;16.60;63.70
29031;DHT22;16122;50.236;11.734;2024-02-04T06:16:10;16.70;63.80
29031;DHT22;16122;50.236;11.734;2024-02-04T06:18:39;16.60;63.80
29031;DHT22;16122;50.236;11.734;2024-02-04T06:21:05;16.60;63.80
29031;DHT22;16122;50.236;11.734;2024-02-04T06:23:32;16.60;63.70
29031;DHT22;16122;50.236;11.734;2024-02-04T06:25:58;16.60;63.80
29031;DHT22;16122;50.236;11.734;2024-02-04T06:28:24;16.60;63.80
29031;DHT22;16122;50.236;11.734;2024-02-04T06:30:50;16.70;63.90
29031;DHT22;16122;50.236;11.734;2024-02-04T06:33:16;16.70;63.90
29031;DHT22;16122;50.236;11.734;2024-02-04T06:35:42;16.60;63.80
29031;DHT22;16122;50.236;11.734;2024-02-04T06:38:08;16.70;63.90
29031;DHT22;16122;50.236;11.734;2024-02-04T06:40:34;16.60;63.80
29031;DHT22;16122;50.236;11.734;2024-02-04T06:42:59;16.60;63.80
29031;DHT22;16122;50.236;11.734;2024-02-04T06:45:25;16.70;63.90
29031;DHT22;16122;50.236;11.734;2024-02-04T06:47:51;16.70;63.80
29031;DHT22;16122;50.236;11.734;2024-02-04T06:50:17;16.60;63.80
29031;DHT22;16122;50.236;11.734;2024-02-04T06:52:43;16.70;63.90
29031;DHT22;16122;50.236;11.734;2024-02-04T06:55:10;16.60;63.80
29031;DHT22;16122;50.236;11.734;2024-02-04T06:57:37;16.70;63.90
29031;DHT22;16122;50.236;11.734;2024-02-04T07:00:04;16.60;64.00
29031;DHT22;16122;50.236;11.734;2024-02-04T07:02:34;16.70;64.40
29031;DHT22;16122;50.236;11.734;2024-02-04T07:05:00;16.60;64.40
29031;DHT22;16122;50.236;11.734;2024-02-04T07:07:26;16.70;64.50
29031;DHT22;16122;50.236;11.734;2024-02-04T07:09:52;16.80;64.90
29031;DHT22;16122;50.236;11.734;2024-02-04T07:12:18;16.70;64.80
29031;DHT22;16122;50.236;11.734;2024-02-04T07:14:44;16.60;64.80
29031;DHT22;16122;50.236;11.734;2024-02-04T07:17:09;16.70;64.90
29031;DHT22;16122;50.236;11.734;2024-02-04T07:19:37;16.60;65.00
29031;DHT22;16122;50.236;11.734;2024-02-04T07:22:03;16.80;65.30
29031;DHT22;16122;50.236;11.734;2024-02-04T07:24:29;16.70;65.20
29031;DHT22;16122;50.236;11.734;2024-02-04T07:26:55;16.70;65.30
29031;DHT22;16122;50.236;11.734;2024-02-04T07:29:21;16.80;65.50
29031;DHT22;16122;50.236;11.734;2024-02-04T07:31:47;16.70;65.50
29031;DHT22;16122;50.236;11.734;2024-02-04T07:34:13;16.70;65.50
29031;DHT22;16122;50.236;11.734;2024-02-04T07:36:39;16.70;65.60
29031;DHT22;16122;50.236;11.734;2024-02-04T07:39:05;16.70;65.70
29031;DHT22;16122;50.236;11.734;2024-02-04T07:41:31;16.70;65.80
29031;DHT22;16122;50.236;11.734;2024-02-04T07:43:57;16.80;66.00
29031;DHT22;16122;50.236;11.734;2024-02-04T07:46:23;16.80;65.90
29031;DHT22;16122;50.236;11.734;2024-02-04T07:48:49;16.70;66.00
29031;DHT22;16122;50.236;11.734;2024-02-04T07:51:15;16.70;65.90
29031;DHT22;16122;50.236;11.734;2024-02-04T07:53:41;16.80;66.10
29031;DHT22;16122;50.236;11.734;2024-02-04T07:56:07;16.70;66.10
29031;DHT22;16122;50.236;11.734;2024-02-04T07:58:33;16.80;66.10
29031;DHT22;16122;50.236;11.734;2024-02-04T08:00:59;16.70;65.90
29031;DHT22;16122;50.236;11.734;2024-02-04T08:03:25;16.70;65.90
29031;DHT22;16122;50.236;11.734;2024-02-04T08:05:51;16.70;65.90
29031;DHT22;16122;50.236;11.734;2024-02-04T08:08:17;16.70;66.00
29031;DHT22;16122;50.236;11.734;2024-02-04T08:10:45;16.80;66.20
29031;DHT22;16122;50.236;11.734;2024-02-04T08:13:11;16.70;66.10
29031;DHT22;16122;50.236;11.734;2024-02-04T08:15:37;16.80;66.30
29031;DHT22;16122;50.236;11.734;2024-02-04T08:18:03;16.70;66.10
29031;DHT22;16122;50.236;11.734;2024-02-04T08:20:30;16.70;66.10
29031;DHT22;16122;50.236;11.734;2024-02-04T08:22:56;16.70;65.90
29031;DHT22;16122;50.236;11.734;2024-02-04T08:25:21;16.70;65.70
29031;DHT22;16122;50.236;11.734;2024-02-04T08:27:48;16.70;65.80
29031;DHT22;16122;50.236;11.734;2024-02-04T08:30:14;16.70;65.90
29031;DHT22;16122;50.236;11.734;2024-02-04T08:32:41;16.80;65.80
29031;DHT22;16122;50.236;11.734;2024-02-04T08:35:07;16.70;65.80
29031;DHT22;16122;50.236;11.734;2024-02-04T08:37:33;16.60;65.70
29031;DHT22;16122;50.236;11.734;2024-02-04T08:40:01;16.80;66.00
29031;DHT22;16122;50.236;11.734;2024-02-04T08:42:28;16.80;65.90
29031;DHT22;16122;50.236;11.734;2024-02-04T08:44:53;16.70;65.70
29031;DHT22;16122;50.236;11.734;2024-02-04T08:47:19;16.70;65.60
29031;DHT22;16122;50.236;11.734;2024-02-04T08:49:45;16.60;65.30
29031;DHT22;16122;50.236;11.734;2024-02-04T08:52:11;16.70;65.30
29031;DHT22;16122;50.236;11.734;2024-02-04T08:54:36;16.70;64.90
29031;DHT22;16122;50.236;11.734;2024-02-04T08:57:02;16.70;65.00
29031;DHT22;16122;50.236;11.734;2024-02-04T08:59:30;16.70;65.00
29031;DHT22;16122;50.236;11.734;2024-02-04T09:01:56;16.60;65.00
29031;DHT22;16122;50.236;11.734;2024-02-04T09:04:22;16.70;65.10
29031;DHT22;16122;50.236;11.734;2024-02-04T09:06:48;16.70;65.50
29031;DHT22;16122;50.236;11.734;2024-02-04T09:09:14;16.70;65.80
29031;DHT22;16122;50.236;11.734;2024-02-04T09:11:40;16.60;65.80
29031;DHT22;16122;50.236;11.734;2024-02-04T09:14:06;16.60;65.80
29031;DHT22;16122;50.236;11.734;2024-02-04T09:16:32;16.70;66.00
29031;DHT22;16122;50.236;11.734;2024-02-04T09:18:58;16.60;66.00
29031;DHT22;16122;50.236;11.734;2024-02-04T09:21:24;16.60;66.20
29031;DHT22;16122;50.236;11.734;2024-02-04T09:23:49;16.60;66.30
29031;DHT22;16122;50.236;11.734;2024-02-04T09:26:15;16.70;66.40
29031;DHT22;16122;50.236;11.734;2024-02-04T09:28:41;16.70;66.50
29031;DHT22;16122;50.236;11.734;2024-02-04T09:31:09;16.60;66.30
29031;DHT22;16122;50.236;11.734;2024-02-04T09:33:35;16.60;66.20
29031;DHT22;16122;50.236;11.734;2024-02-04T09:36:04;16.60;66.20
29031;DHT22;16122;50.236;11.734;2024-02-04T09:38:29;16.60;66.30
29031;DHT22;16122;50.236;11.734;2024-02-04T09:40:55;16.70;66.40
29031;DHT22;16122;50.236;11.734;2024-02-04T09:43:21;16.70;66.50
29031;DHT22;16122;50.236;11.734;2024-02-04T09:45:47;16.70;66.50
29031;DHT22;16122;50.236;11.734;2024-02-04T09:48:17;16.60;66.60
29031;DHT22;16122;50.236;11.734;2024-02-04T09:50:44;16.60;66.50
29031;DHT22;16122;50.236;11.734;2024-02-04T09:53:13;16.60;66.60
29031;DHT22;16122;50.236;11.734;2024-02-04T09:55:40;16.70;66.70
29031;DHT22;16122;50.236;11.734;2024-02-04T09:58:06;16.60;66.70
29031;DHT22;16122;50.236;11.734;2024-02-04T10:00:33;16.70;67.00
29031;DHT22;16122;50.236;11.734;2024-02-04T10:03:00;16.70;66.90
29031;DHT22;16122;50.236;11.734;2024-02-04T10:05:26;16.80;67.20
29031;DHT22;16122;50.236;11.734;2024-02-04T10:07:52;16.80;67.30
29031;DHT22;16122;50.236;11.734;2024-02-04T10:10:18;16.80;67.20
29031;DHT22;16122;50.236;11.734;2024-02-04T10:12:44;16.80;67.50
29031;DHT22;16122;50.236;11.734;2024-02-04T10:15:10;16.80;67.80
29031;DHT22;16122;50.236;11.734;2024-02-04T10:17:36;16.80;68.20
29031;DHT22;16122;50.236;11.734;2024-02-04T10:20:02;16.80;68.50
29031;DHT22;16122;50.236;11.734;2024-02-04T10:22:28;16.90;69.40
29031;DHT22;16122;50.236;11.734;2024-02-04T10:25:05;16.80;69.50
29031;DHT22;16122;50.236;11.734;2024-02-04T10:27:31;16.80;70.00
29031;DHT22;16122;50.236;11.734;2024-02-04T10:29:57;16.80;70.20
29031;DHT22;16122;50.236;11.734;2024-02-04T10:32:23;17.00;70.80
29031;DHT22;16122;50.236;11.734;2024-02-04T10:34:49;16.90;71.70
29031;DHT22;16122;50.236;11.734;2024-02-04T10:37:15;16.90;72.00
29031;DHT22;16122;50.236;11.734;2024-02-04T10:39:40;17.00;72.50
29031;DHT22;16122;50.236;11.734;2024-02-04T10:42:07;17.00;72.60
29031;DHT22;16122;50.236;11.734;2024-02-04T10:44:36;17.00;72.80
29031;DHT22;16122;50.236;11.734;2024-02-04T10:47:05;17.00;73.50
29031;DHT22;16122;50.236;11.734;2024-02-04T10:49:34;17.00;73.90
29031;DHT22;16122;50.236;11.734;2024-02-04T10:52:00;17.00;74.20
29031;DHT22;16122;50.236;11.734;2024-02-04T10:54:27;16.90;74.40
29031;DHT22;16122;50.236;11.734;2024-02-04T10:56:57;16.90;74.80
29031;DHT22;16122;50.236;11.734;2024-02-04T10:59:24;17.00;75.40
29031;DHT22;16122;50.236;11.734;2024-02-04T11:01:50;17.00;76.10
29031;DHT22;16122;50.236;11.734;2024-02-04T11:04:17;17.00;77.60
29031;DHT22;16122;50.236;11.734;2024-02-04T11:06:44;17.00;77.50
29031;DHT22;16122;50.236;11.734;2024-02-04T11:09:12;17.00;78.20
29031;DHT22;16122;50.236;11.734;2024-02-04T11:11:40;17.00;79.90
29031;DHT22;16122;50.236;11.734;2024-02-04T11:14:10;17.10;79.80
29031;DHT22;16122;50.236;11.734;2024-02-04T11:17:14;17.10;80.20
29031;DHT22;16122;50.236;11.734;2024-02-04T11:22:43;17.00;80.40
29031;DHT22;16122;50.236;11.734;2024-02-04T11:27:58;17.00;79.70
29031;DHT22;16122;50.236;11.734;2024-02-04T11:30:23;17.00;79.80
29031;DHT22;16122;50.236;11.734;2024-02-04T11:32:49;17.00;79.60
29031;DHT22;16122;50.236;11.734;2024-02-04T11:35:17;17.10;80.50
29031;DHT22;16122;50.236;11.734;2024-02-04T11:37:43;17.00;80.90
29031;DHT22;16122;50.236;11.734;2024-02-04T11:40:14;17.00;82.20
29031;DHT22;16122;50.236;11.734;2024-02-04T11:42:45;17.10;84.40
29031;DHT22;16122;50.236;11.734;2024-02-04T11:45:12;16.90;85.20
29031;DHT22;16122;50.236;11.734;2024-02-04T11:47:39;17.00;84.90
29031;DHT22;16122;50.236;11.734;2024-02-04T11:50:05;17.00;85.20
29031;DHT22;16122;50.236;11.734;2024-02-04T11:52:32;17.10;85.30
29031;DHT22;16122;50.236;11.734;2024-02-04T11:54:58;17.00;85.20
29031;DHT22;16122;50.236;11.734;2024-02-04T11:57:25;17.00;85.40
29031;DHT22;16122;50.236;11.734;2024-02-04T11:59:53;17.00;85.00
29031;DHT22;16122;50.236;11.734;2024-02-04T12:02:20;17.00;84.40
29031;DHT22;16122;50.236;11.734;2024-02-04T12:04:49;17.00;83.60
29031;DHT22;16122;50.236;11.734;2024-02-04T12:07:16;17.00;82.50
29031;DHT22;16122;50.236;11.734;2024-02-04T12:09:43;17.00;82.00
29031;DHT22;16122;50.236;11.734;2024-02-04T12:12:09;17.00;82.70
29031;DHT22;16122;50.236;11.734;2024-02-04T12:14:36;16.90;82.60
29031;DHT22;16122;50.236;11.734;2024-02-04T12:17:08;16.90;82.60
29031;DHT22;16122;50.236;11.734;2024-02-04T12:19:36;16.90;82.30
29031;DHT22;16122;50.236;11.734;2024-02-04T12:22:02;17.00;82.60
29031;DHT22;16122;50.236;11.734;2024-02-04T12:24:35;16.90;82.20
29031;DHT22;16122;50.236;11.734;2024-02-04T12:27:03;16.90;82.00
29031;DHT22;16122;50.236;11.734;2024-02-04T12:29:30;16.90;81.60
29031;DHT22;16122;50.236;11.734;2024-02-04T12:32:02;16.80;81.60
29031;DHT22;16122;50.236;11.734;2024-02-04T12:34:29;17.00;81.90
29031;DHT22;16122;50.236;11.734;2024-02-04T12:37:01;16.90;81.40
29031;DHT22;16122;50.236;11.734;2024-02-04T12:39:29;16.80;81.10
29031;DHT22;16122;50.236;11.734;2024-02-04T12:41:57;16.80;81.10
29031;DHT22;16122;50.236;11.734;2024-02-04T12:44:23;16.90;80.60
29031;DHT22;16122;50.236;11.734;2024-02-04T12:46:52;16.80;80.50
29031;DHT22;16122;50.236;11.734;2024-02-04T12:49:21;16.80;80.50
29031;DHT22;16122;50.236;11.734;2024-02-04T12:51:47;16.90;80.30
29031;DHT22;16122;50.236;11.734;2024-02-04T12:54:13;16.80;80.20
29031;DHT22;16122;50.236;11.734;2024-02-04T12:56:59;16.80;80.00
29031;DHT22;16122;50.236;11.734;2024-02-04T12:59:32;16.80;79.90
29031;DHT22;16122;50.236;11.734;2024-02-04T13:02:04;16.70;79.50
29031;DHT22;16122;50.236;11.734;2024-02-04T13:04:40;16.90;79.80
29031;DHT22;16122;50.236;11.734;2024-02-04T13:07:11;16.90;79.50
29031;DHT22;16122;50.236;11.734;2024-02-04T13:09:45;16.80;79.30
29031;DHT22;16122;50.236;11.734;2024-02-04T13:12:11;16.80;79.30
29031;DHT22;16122;50.236;11.734;2024-02-04T13:14:42;16.70;79.10
29031;DHT22;16122;50.236;11.734;2024-02-04T13:17:07;16.70;79.10
29031;DHT22;16122;50.236;11.734;2024-02-04T13:19:38;16.70;79.20
29031;DHT22;16122;50.236;11.734;2024-02-04T13:22:05;16.70;78.80
29031;DHT22;16122;50.236;11.734;2024-02-04T13:24:32;16.70;78.80
29031;DHT22;16122;50.236;11.734;2024-02-04T13:26:58;16.70;79.10
29031;DHT22;16122;50.236;11.734;2024-02-04T13:29:26;16.70;80.00
29031;DHT22;16122;50.236;11.734;2024-02-04T13:31:52;16.70;79.40
29031;DHT22;16122;50.236;11.734;2024-02-04T13:34:18;16.70;79.40
29031;DHT22;16122;50.236;11.734;2024-02-04T13:36:46;16.60;79.30
29031;DHT22;16122;50.236;11.734;2024-02-04T13:39:12;16.80;79.60
29031;DHT22;16122;50.236;11.734;2024-02-04T13:41:44;16.60;79.20
29031;DHT22;16122;50.236;11.734;2024-02-04T13:44:10;16.60;79.60
29031;DHT22;16122;50.236;11.734;2024-02-04T13:46:36;16.60;79.50
29031;DHT22;16122;50.236;11.734;2024-02-04T13:49:02;16.60;79.50
29031;DHT22;16122;50.236;11.734;2024-02-04T13:51:29;16.60;79.40
29031;DHT22;16122;50.236;11.734;2024-02-04T13:53:55;16.70;79.50
29031;DHT22;16122;50.236;11.734;2024-02-04T13:56:20;16.70;79.30
29031;DHT22;16122;50.236;11.734;2024-02-04T13:58:46;16.70;79.30
29031;DHT22;16122;50.236;11.734;2024-02-04T14:01:12;16.70;79.70
29031;DHT22;16122;50.236;11.734;2024-02-04T14:03:39;16.60;81.00
29031;DHT22;16122;50.236;11.734;2024-02-04T14:06:04;16.70;82.40
29031;DHT22;16122;50.236;11.734;2024-02-04T14:08:30;16.60;82.90
29031;DHT22;16122;50.236;11.734;2024-02-04T14:10:56;16.70;83.30
29031;DHT22;16122;50.236;11.734;2024-02-04T14:13:22;16.60;83.20
29031;DHT22;16122;50.236;11.734;2024-02-04T14:15:48;16.60;83.20
29031;DHT22;16122;50.236;11.734;2024-02-04T14:18:13;16.70;83.10
29031;DHT22;16122;50.236;11.734;2024-02-04T14:20:39;16.70;83.00
29031;DHT22;16122;50.236;11.734;2024-02-04T14:23:05;16.60;82.50
29031;DHT22;16122;50.236;11.734;2024-02-04T14:25:31;16.60;82.40
29031;DHT22;16122;50.236;11.734;2024-02-04T14:27:57;16.50;82.50
29031;DHT22;16122;50.236;11.734;2024-02-04T14:30:23;16.60;82.80
29031;DHT22;16122;50.236;11.734;2024-02-04T14:32:48;16.60;82.50
29031;DHT22;16122;50.236;11.734;2024-02-04T14:35:14;16.60;82.50
29031;DHT22;16122;50.236;11.734;2024-02-04T14:37:41;16.70;82.60
29031;DHT22;16122;50.236;11.734;2024-02-04T14:40:09;16.60;82.50
29031;DHT22;16122;50.236;11.734;2024-02-04T14:42:36;16.50;82.50
29031;DHT22;16122;50.236;11.734;2024-02-04T14:45:02;16.50;82.40
29031;DHT22;16122;50.236;11.734;2024-02-04T14:47:29;16.50;82.50
29031;DHT22;16122;50.236;11.734;2024-02-04T14:49:56;16.50;82.50
29031;DHT22;16122;50.236;11.734;2024-02-04T14:52:22;16.60;82.60
29031;DHT22;16122;50.236;11.734;2024-02-04T14:54:48;16.60;82.70
29031;DHT22;16122;50.236;11.734;2024-02-04T14:57:14;16.60;82.60
29031;DHT22;16122;50.236;11.734;2024-02-04T14:59:40;16.50;82.40
29031;DHT22;16122;50.236;11.734;2024-02-04T15:02:09;16.50;82.60
29031;DHT22;16122;50.236;11.734;2024-02-04T15:04:35;16.50;82.30
29031;DHT22;16122;50.236;11.734;2024-02-04T15:07:01;16.50;82.10
29031;DHT22;16122;50.236;11.734;2024-02-04T15:09:34;16.50;81.90
29031;DHT22;16122;50.236;11.734;2024-02-04T15:12:00;16.40;81.70
29031;DHT22;16122;50.236;11.734;2024-02-04T15:14:26;16.40;81.70
29031;DHT22;16122;50.236;11.734;2024-02-04T15:16:53;16.60;81.80
29031;DHT22;16122;50.236;11.734;2024-02-04T15:19:22;16.50;81.80
29031;DHT22;16122;50.236;11.734;2024-02-04T15:21:50;16.40;82.10